createdAt,value
2018-11-20T00:00:04.208Z,25.30
2018-11-20T00:02:54.486Z,26.57
2018-11-20T00:06:03.745Z,27.27
2018-11-20T00:08:58.015Z,29.40
2018-11-20T00:12:07.280Z,30.20
2018-11-20T00:15:06.083Z,30.63
2018-11-20T00:18:15.349Z,31.23
2018-11-20T00:21:06.394Z,32.70
2018-11-20T00:24:14.314Z,30.53
2018-11-20T00:27:04.618Z,44.13
2018-11-20T00:30:03.906Z,32.10
2018-11-20T00:32:59.100Z,33.23
2018-11-20T00:36:08.376Z,32.67
2018-11-20T00:39:09.875Z,31.57
2018-11-20T00:42:19.212Z,30.17
2018-11-20T00:45:26.906Z,28.47
2018-11-20T00:51:08.146Z,32.67
2018-11-20T00:54:09.594Z,34.03
2018-11-20T01:00:42.838Z,32.47
2018-11-20T01:03:52.100Z,33.50
2018-11-20T01:06:47.871Z,34.13
2018-11-20T01:09:52.918Z,36.60
2018-11-20T01:12:51.465Z,43.67
2018-11-20T01:16:00.256Z,36.80
2018-11-20T01:19:01.513Z,39.63
2018-11-20T01:22:10.774Z,48.90
2018-11-20T01:25:12.317Z,51.03
2018-11-20T01:28:21.619Z,39.20
2018-11-20T01:31:22.860Z,39.70
2018-11-20T01:34:32.228Z,35.07
2018-11-20T01:37:36.521Z,31.97
2018-11-20T01:40:45.785Z,59.20
2018-11-20T01:43:42.485Z,36.00
2018-11-20T01:46:51.751Z,40.00
2018-11-20T01:49:55.008Z,33.93
2018-11-20T01:53:04.318Z,33.60
2018-11-20T01:56:06.057Z,30.30
2018-11-20T01:59:15.334Z,37.90
2018-11-20T02:02:17.312Z,31.77
2018-11-20T02:08:08.958Z,29.03
2018-11-20T02:11:10.897Z,25.07
2018-11-20T02:14:22.942Z,28.87
2018-11-20T02:17:26.364Z,28.17
2018-11-20T02:20:35.694Z,24.37
2018-11-20T02:23:40.115Z,21.20
2018-11-20T02:26:49.389Z,24.10
2018-11-20T02:29:50.723Z,23.77
2018-11-20T02:32:59.992Z,24.03
2018-11-20T02:36:01.905Z,22.20
2018-11-20T02:39:11.170Z,20.17
2018-11-20T02:42:12.744Z,16.87
2018-11-20T02:45:22.000Z,19.80
2018-11-20T02:48:23.614Z,19.53
2018-11-20T02:51:32.962Z,17.77
2018-11-20T02:54:33.860Z,18.30
2018-11-20T02:57:43.138Z,19.27
2018-11-20T03:00:52.401Z,18.03
2018-11-20T03:03:53.824Z,16.20
2018-11-20T03:07:03.148Z,16.07
2018-11-20T03:09:57.495Z,13.47
2018-11-20T03:13:06.769Z,14.23
2018-11-20T03:16:08.734Z,14.97
2018-11-20T03:19:17.980Z,14.97
2018-11-20T03:22:22.215Z,16.83
2018-11-20T03:26:09.282Z,16.00
2018-11-20T03:29:18.630Z,16.23
2018-11-20T03:32:27.886Z,17.47
2018-11-20T03:35:29.315Z,17.03
2018-11-20T03:38:38.567Z,22.73
2018-11-20T03:41:40.409Z,20.57
2018-11-20T03:44:49.660Z,18.30
2018-11-20T03:47:51.078Z,20.07
2018-11-20T03:51:00.296Z,18.17
2018-11-20T03:54:05.208Z,18.83
2018-11-20T03:57:05.273Z,18.70
2018-11-20T03:59:58.658Z,19.37
2018-11-20T04:03:07.930Z,20.17
2018-11-20T04:06:09.594Z,21.27
2018-11-20T04:09:18.845Z,19.30
2018-11-20T04:12:20.404Z,23.33
2018-11-20T04:15:29.662Z,26.60
2018-11-20T04:18:31.199Z,24.83
2018-11-20T04:21:40.447Z,24.23
2018-11-20T04:24:47.882Z,29.53
2018-11-20T04:27:57.134Z,28.90
2018-11-20T04:31:18.108Z,26.53
2018-11-20T04:34:27.384Z,27.83
2018-11-20T04:37:29.169Z,28.60
2018-11-20T04:40:38.454Z,26.33
2018-11-20T04:43:40.656Z,24.40
2018-11-20T04:46:50.402Z,25.10
2018-11-20T04:53:10.620Z,26.17
2018-11-20T04:56:19.882Z,30.60
2018-11-20T04:59:27.328Z,32.50
2018-11-20T05:02:26.221Z,33.50
2018-11-20T05:05:33.272Z,38.57
2018-11-20T05:08:42.570Z,38.47
2018-11-20T05:11:43.922Z,43.17
2018-11-20T05:14:53.279Z,32.63
2018-11-20T05:17:43.619Z,33.37
2018-11-20T05:20:53.086Z,32.80
2018-11-20T05:23:54.838Z,26.10
2018-11-20T05:27:04.091Z,27.63
2018-11-20T05:30:06.273Z,27.43
2018-11-20T05:33:15.507Z,27.10
2018-11-20T05:36:17.706Z,26.73
2018-11-20T05:39:28.602Z,22.73
2018-11-20T05:42:30.477Z,24.87
2018-11-20T05:45:40.011Z,26.30
2018-11-20T05:48:42.113Z,24.30
2018-11-20T05:51:51.367Z,23.73
2018-11-20T05:54:49.392Z,26.23
2018-11-20T05:57:58.791Z,24.37
2018-11-20T06:01:00.144Z,32.63
2018-11-20T06:04:09.404Z,30.10
2018-11-20T06:07:12.112Z,26.57
2018-11-20T06:10:21.381Z,25.87
2018-11-20T06:13:21.636Z,26.30
2018-11-20T06:19:33.464Z,25.83
2018-11-20T06:22:34.901Z,26.53
2018-11-20T06:25:44.139Z,24.63
2018-11-20T06:28:46.369Z,23.57
2018-11-20T06:31:55.619Z,24.33
2018-11-20T06:34:44.033Z,32.13
2018-11-20T06:41:14.257Z,24.00
2018-11-20T06:44:16.287Z,24.67
2018-11-20T06:47:25.966Z,26.07
2018-11-20T06:50:25.165Z,29.40
2018-11-20T06:56:46.361Z,29.83
2018-11-20T06:59:47.420Z,31.57
2018-11-20T07:02:56.145Z,27.33
2018-11-20T07:05:57.352Z,26.70
2018-11-20T07:09:05.814Z,22.57
2018-11-20T07:12:06.923Z,19.20
2018-11-20T07:15:15.756Z,18.47
2018-11-20T07:18:17.345Z,18.87
2018-11-20T07:21:25.807Z,18.30
2018-11-20T07:24:27.188Z,18.40
2018-11-20T07:27:35.638Z,24.90
2018-11-20T07:30:37.394Z,34.33
2018-11-20T07:33:45.827Z,27.53
2018-11-20T07:36:41.923Z,26.23
2018-11-20T07:39:50.220Z,23.83
2018-11-20T07:42:44.980Z,22.57
2018-11-20T07:45:53.428Z,22.53
2018-11-20T07:48:46.776Z,23.83
2018-11-20T07:52:14.756Z,30.73
2018-11-20T07:55:16.262Z,30.33
2018-11-20T07:58:24.668Z,29.23
2018-11-20T08:01:29.555Z,37.67
2018-11-20T08:04:38.023Z,39.10
2018-11-20T08:07:39.487Z,27.87
2018-11-20T08:10:47.937Z,26.20
2018-11-20T08:13:49.248Z,19.90
2018-11-20T08:16:57.688Z,17.43
2018-11-20T08:19:59.344Z,15.40
2018-11-20T08:23:07.796Z,15.10
2018-11-20T08:26:15.289Z,14.67
2018-11-20T08:29:23.640Z,15.23
2018-11-20T08:32:25.202Z,15.93
2018-11-20T08:35:33.662Z,14.57
2018-11-20T08:38:35.492Z,14.20
2018-11-20T08:41:43.922Z,13.83
2018-11-20T08:44:45.365Z,14.83
2018-11-20T08:47:53.924Z,18.00
2018-11-20T08:50:54.877Z,15.10
2018-11-20T08:54:03.324Z,17.20
2018-11-20T08:57:04.778Z,17.93
2018-11-20T09:00:05.483Z,19.50
2018-11-20T09:03:06.882Z,19.57
2018-11-20T09:06:11.971Z,24.70
2018-11-20T09:09:19.646Z,26.03
2018-11-20T09:12:28.100Z,29.70
2018-11-20T09:15:29.331Z,29.73
2018-11-20T09:18:37.794Z,26.27
2018-11-20T09:21:32.546Z,24.47
2018-11-20T09:24:40.977Z,62.80
2018-11-20T09:27:41.946Z,22.83
2018-11-20T09:30:50.642Z,23.20
2018-11-20T09:33:57.860Z,22.83
2018-11-20T09:37:06.317Z,24.47
2018-11-20T09:40:21.730Z,26.27
2018-11-20T09:43:30.221Z,18.37
2018-11-20T09:46:32.087Z,20.83
2018-11-20T09:49:40.480Z,17.80
2018-11-20T09:52:41.944Z,16.57
2018-11-20T09:55:50.325Z,17.37
2018-11-20T09:58:51.397Z,15.60
2018-11-20T10:01:59.844Z,14.23
2018-11-20T10:05:01.348Z,14.50
2018-11-20T10:08:09.783Z,12.87
2018-11-20T10:11:11.068Z,11.83
2018-11-20T10:14:20.429Z,11.70
2018-11-20T10:17:21.249Z,11.67
2018-11-20T10:20:29.691Z,12.30
2018-11-20T10:23:30.824Z,11.60
2018-11-20T10:26:39.243Z,10.60
2018-11-20T10:29:40.774Z,17.57
2018-11-20T10:32:49.251Z,17.67
2018-11-20T10:35:50.719Z,27.33
2018-11-20T10:38:59.186Z,80.13
2018-11-20T10:41:58.437Z,35.77
2018-11-20T10:45:06.918Z,29.10
2018-11-20T10:48:08.394Z,21.80
2018-11-20T10:51:16.843Z,22.43
2018-11-20T10:54:18.361Z,24.43
2018-11-20T10:57:26.805Z,21.07
2018-11-20T11:00:27.772Z,21.00
2018-11-20T11:03:36.238Z,24.33
2018-11-20T11:06:37.811Z,25.87
2018-11-20T11:09:46.213Z,20.97
2018-11-20T11:12:47.838Z,20.50
2018-11-20T11:15:56.205Z,18.83
2018-11-20T11:18:51.330Z,16.97
2018-11-20T11:21:59.815Z,18.57
2018-11-20T11:25:00.498Z,18.80
2018-11-20T11:28:08.979Z,16.30
2018-11-20T11:34:16.729Z,16.80
2018-11-20T11:37:17.968Z,18.70
2018-11-20T11:40:26.989Z,18.20
2018-11-20T11:43:31.360Z,20.17
2018-11-20T11:46:39.809Z,20.77
2018-11-20T11:49:34.442Z,18.17
2018-11-20T11:52:31.453Z,18.57
2018-11-20T11:55:28.714Z,16.43
2018-11-20T11:58:37.157Z,14.93
2018-11-20T12:04:49.261Z,18.37
2018-11-20T12:07:50.648Z,18.70
2018-11-20T12:10:59.213Z,17.37
2018-11-20T12:14:01.082Z,19.17
2018-11-20T12:17:09.535Z,21.10
2018-11-20T12:20:05.168Z,23.27
2018-11-20T12:23:09.819Z,25.83
2018-11-20T12:26:11.151Z,20.20
2018-11-20T12:29:19.603Z,14.97
2018-11-20T12:32:26.782Z,47.73
2018-11-20T12:35:36.191Z,49.20
2018-11-20T12:42:04.790Z,18.67
2018-11-20T12:45:05.263Z,22.50
2018-11-20T12:48:05.868Z,16.27
2018-11-20T12:51:14.300Z,22.03
2018-11-20T12:54:21.587Z,21.50
2018-11-20T12:57:30.037Z,27.97
2018-11-20T13:00:31.420Z,21.80
2018-11-20T13:03:39.896Z,23.77
2018-11-20T13:09:54.242Z,30.67
2018-11-20T13:13:02.694Z,29.57
2018-11-20T13:16:04.173Z,48.00
2018-11-20T13:19:12.625Z,62.70
2018-11-20T13:22:13.746Z,72.93
2018-11-20T13:25:22.244Z,52.67
2018-11-20T13:28:25.846Z,103.90
2018-11-20T13:31:34.304Z,43.97
2018-11-20T13:34:37.834Z,40.70
2018-11-20T13:37:44.596Z,47.03
2018-11-20T13:41:06.831Z,63.90
2018-11-20T13:44:15.286Z,40.20
2018-11-20T13:47:14.741Z,34.23
2018-11-20T13:50:23.286Z,32.27
2018-11-20T13:53:24.787Z,24.77
2018-11-20T13:56:33.240Z,27.70
2018-11-20T13:59:35.080Z,26.40
2018-11-20T14:02:43.539Z,27.67
2018-11-20T14:05:44.684Z,25.90
2018-11-20T14:08:53.158Z,24.97
2018-11-20T14:11:46.380Z,26.43
2018-11-20T14:14:52.700Z,25.40
2018-11-20T14:17:53.712Z,41.93
2018-11-20T14:21:02.164Z,43.83
2018-11-20T14:24:00.706Z,27.73
2018-11-20T14:30:30.514Z,53.27
2018-11-20T14:33:31.821Z,85.83
2018-11-20T14:36:40.246Z,62.67
2018-11-20T14:39:41.898Z,30.33
2018-11-20T14:42:50.385Z,37.93
2018-11-20T14:45:43.886Z,35.07
2018-11-20T14:48:52.448Z,36.53
2018-11-20T14:51:49.136Z,33.23
2018-11-20T14:54:57.572Z,27.50
2018-11-20T14:57:59.126Z,32.70
2018-11-20T15:01:07.576Z,31.33
2018-11-20T15:04:08.838Z,35.37
2018-11-20T15:07:17.584Z,31.23
2018-11-20T15:10:19.396Z,30.97
2018-11-20T15:13:27.901Z,70.73
2018-11-20T15:16:29.749Z,41.73
2018-11-20T15:19:38.237Z,58.63
2018-11-20T15:22:39.887Z,52.03
2018-11-20T15:25:48.341Z,43.63
2018-11-20T15:28:52.704Z,71.33
2018-11-20T15:32:01.163Z,68.40
2018-11-20T15:34:52.041Z,72.87
2018-11-20T15:38:00.504Z,48.43
2018-11-20T15:41:04.710Z,122.80
2018-11-20T15:44:13.165Z,51.17
2018-11-20T15:47:13.990Z,48.03
2018-11-20T15:50:22.447Z,45.30
2018-11-20T15:53:23.761Z,45.33
2018-11-20T15:56:32.493Z,43.13
2018-11-20T15:59:33.676Z,52.07
2018-11-20T16:02:41.458Z,39.87
2018-11-20T16:05:48.672Z,45.87
2018-11-20T16:08:57.200Z,67.03
2018-11-20T16:11:58.993Z,43.80
2018-11-20T16:15:07.541Z,46.83
2018-11-20T16:18:04.924Z,67.07
2018-11-20T16:21:08.877Z,47.10
2018-11-20T16:24:09.866Z,43.83
2018-11-20T16:27:18.318Z,57.03
2018-11-20T16:30:18.539Z,50.03
2018-11-20T16:33:27.000Z,38.80
2018-11-20T16:36:28.634Z,35.73
2018-11-20T16:39:37.079Z,36.40
2018-11-20T16:42:38.596Z,39.33
2018-11-20T16:45:47.051Z,36.43
2018-11-20T16:48:48.756Z,42.27
2018-11-20T16:51:57.218Z,36.60
2018-11-20T16:54:52.964Z,40.33
2018-11-20T16:58:01.408Z,44.40
2018-11-20T17:00:55.320Z,47.17
2018-11-20T17:03:54.904Z,51.20
2018-11-20T17:10:06.743Z,51.83
2018-11-20T17:13:15.200Z,52.87
2018-11-20T17:16:16.730Z,54.77
2018-11-20T17:19:25.396Z,49.90
2018-11-20T17:22:29.820Z,53.67
2018-11-20T17:25:38.273Z,86.33
2018-11-20T17:28:42.900Z,61.77
2018-11-20T17:31:51.352Z,102.67
2018-11-20T17:34:52.922Z,59.90
2018-11-20T17:38:01.761Z,50.53
2018-11-20T17:41:03.782Z,57.90
2018-11-20T17:44:12.338Z,42.53
2018-11-20T17:47:19.593Z,41.23
2018-11-20T17:50:28.469Z,43.40
2018-11-20T17:53:35.681Z,45.10
2018-11-20T17:56:44.605Z,47.57
2018-11-20T17:59:45.887Z,67.63
2018-11-20T18:02:54.658Z,134.13
2018-11-20T18:05:55.641Z,114.00
2018-11-20T18:09:04.093Z,115.87
2018-11-20T18:12:05.269Z,97.33
2018-11-20T18:15:13.729Z,58.00
2018-11-20T18:18:15.407Z,50.43
2018-11-20T18:21:24.205Z,58.87
2018-11-20T18:24:25.831Z,47.47
2018-11-20T18:30:54.463Z,94.70
2018-11-20T18:33:55.809Z,66.40
2018-11-20T18:37:04.247Z,77.77
2018-11-20T18:40:05.916Z,55.03
2018-11-20T18:43:14.348Z,50.33
2018-11-20T18:46:15.757Z,42.03
2018-11-20T18:49:24.465Z,45.83
2018-11-20T18:52:28.569Z,43.80
2018-11-20T18:55:37.022Z,92.80
2018-11-20T18:58:38.288Z,53.90
2018-11-20T19:01:46.723Z,51.83
2018-11-20T19:04:46.354Z,58.87
2018-11-20T19:07:44.461Z,47.03
2018-11-20T19:10:45.683Z,54.43
2018-11-20T19:13:54.117Z,68.27
2018-11-20T19:16:55.273Z,58.00
2018-11-20T19:20:03.797Z,90.10
2018-11-20T19:23:13.413Z,64.00
2018-11-20T19:26:19.708Z,59.20
2018-11-20T19:29:28.357Z,72.20
2018-11-20T19:32:28.032Z,62.20
2018-11-20T19:35:36.476Z,57.03
2018-11-20T19:38:38.069Z,59.27
2018-11-20T19:41:46.640Z,48.00
2018-11-20T19:44:48.194Z,45.63
2018-11-20T19:47:57.522Z,45.57
2018-11-20T19:50:59.168Z,80.00
2018-11-20T19:54:07.779Z,69.57
2018-11-20T19:57:08.961Z,70.57
2018-11-20T20:00:17.473Z,59.40
2018-11-20T20:03:19.233Z,64.97
2018-11-20T20:06:27.783Z,63.77
2018-11-20T20:09:33.172Z,57.47
2018-11-20T20:12:41.680Z,55.67
2018-11-20T20:15:44.639Z,51.53
2018-11-20T20:18:52.255Z,56.47
2018-11-20T20:21:53.789Z,52.17
2018-11-20T20:25:02.281Z,73.17
2018-11-20T20:28:03.955Z,52.50
2018-11-20T20:31:12.444Z,66.23
2018-11-20T20:34:17.659Z,113.30
2018-11-20T20:37:26.096Z,213.87
2018-11-20T20:40:30.339Z,82.63
2018-11-20T20:43:39.096Z,102.43
2018-11-20T20:46:38.565Z,137.20
2018-11-20T20:49:47.006Z,116.53
2018-11-20T20:52:48.357Z,136.40
2018-11-20T20:55:56.828Z,94.57
2018-11-20T20:58:56.472Z,80.10
2018-11-20T21:02:05.268Z,90.63
2018-11-20T21:04:59.741Z,62.87
2018-11-20T21:08:08.408Z,74.33
2018-11-20T21:11:10.121Z,58.27
2018-11-20T21:14:18.816Z,57.07
2018-11-20T21:17:20.147Z,65.87
2018-11-20T21:20:28.594Z,69.83
2018-11-20T21:23:29.771Z,57.33
2018-11-20T21:26:38.551Z,56.50
2018-11-20T21:29:39.974Z,55.53
2018-11-20T21:32:48.855Z,68.57
2018-11-20T21:35:50.546Z,63.57
2018-11-20T21:38:59.012Z,58.10
2018-11-20T21:42:00.024Z,85.87
2018-11-20T21:45:08.492Z,66.20
2018-11-20T21:48:09.762Z,62.90
2018-11-20T21:51:18.244Z,61.23
2018-11-20T21:54:20.122Z,70.33
2018-11-20T21:57:28.639Z,67.40
2018-11-20T22:00:31.672Z,52.83
2018-11-20T22:03:40.186Z,68.37
2018-11-20T22:06:41.620Z,63.70
2018-11-20T22:09:50.215Z,60.70
2018-11-20T22:12:51.753Z,58.03
2018-11-20T22:16:00.209Z,62.63
2018-11-20T22:19:01.492Z,69.07
2018-11-20T22:22:09.960Z,65.17
2018-11-20T22:25:10.986Z,60.50
2018-11-20T22:28:19.453Z,61.27
2018-11-20T22:31:14.313Z,49.17
2018-11-20T22:34:03.402Z,49.33
2018-11-20T22:40:02.514Z,56.73
2018-11-20T22:42:51.588Z,54.97
2018-11-20T22:46:00.061Z,57.83
2018-11-20T22:48:49.131Z,63.60
2018-11-20T22:51:38.232Z,72.73
2018-11-20T22:54:39.351Z,61.00
2018-11-20T22:57:47.794Z,53.83
2018-11-20T23:00:49.209Z,57.73
2018-11-20T23:04:00.249Z,50.90
2018-11-20T23:06:59.320Z,50.33
2018-11-20T23:09:48.781Z,56.37
2018-11-20T23:12:31.269Z,52.03
2018-11-20T23:15:20.710Z,64.37
2018-11-20T23:18:03.248Z,56.07
2018-11-20T23:20:52.700Z,50.80
2018-11-20T23:23:35.150Z,48.93
2018-11-20T23:26:24.605Z,50.97
2018-11-20T23:29:06.585Z,44.63
2018-11-20T23:34:57.468Z,41.50
2018-11-20T23:37:46.909Z,45.80
2018-11-20T23:40:29.096Z,41.77
2018-11-20T23:43:18.549Z,44.83
2018-11-20T23:46:00.842Z,40.70
2018-11-20T23:48:50.283Z,34.77
2018-11-20T23:51:33.059Z,34.17
2018-11-20T23:54:21.828Z,32.40
2018-11-20T23:57:04.272Z,38.57
2018-11-20T23:59:53.710Z,33.63
